createdAt,value
2018-07-06T00:00:14.293Z,0.00
2018-07-06T00:01:14.301Z,0.00
2018-07-06T00:02:14.340Z,0.00
2018-07-06T00:03:14.355Z,0.00
2018-07-06T00:04:14.381Z,0.00
2018-07-06T00:05:14.411Z,0.00
2018-07-06T00:06:14.426Z,0.00
2018-07-06T00:07:14.448Z,0.00
2018-07-06T00:08:14.474Z,0.00
2018-07-06T00:09:14.504Z,0.00
2018-07-06T00:10:14.516Z,0.00
2018-07-06T00:11:14.543Z,0.00
2018-07-06T00:12:14.566Z,0.00
2018-07-06T00:13:14.588Z,0.00
2018-07-06T00:14:14.613Z,0.00
2018-07-06T00:15:14.634Z,0.00
2018-07-06T00:16:14.660Z,0.00
2018-07-06T00:17:14.682Z,0.00
2018-07-06T00:18:14.708Z,0.00
2018-07-06T00:19:14.719Z,0.00
2018-07-06T00:20:14.745Z,0.00
2018-07-06T00:21:14.774Z,0.00
2018-07-06T00:22:14.803Z,0.00
2018-07-06T00:23:14.813Z,0.00
2018-07-06T00:24:14.836Z,0.00
2018-07-06T00:25:14.867Z,0.00
2018-07-06T00:26:14.892Z,0.00
2018-07-06T00:27:14.908Z,0.00
2018-07-06T00:28:14.940Z,0.00
2018-07-06T00:29:14.954Z,0.00
2018-07-06T00:30:14.980Z,0.00
2018-07-06T00:31:15.022Z,0.00
2018-07-06T00:32:15.024Z,0.00
2018-07-06T00:33:15.048Z,0.00
2018-07-06T00:34:15.071Z,0.00
2018-07-06T00:35:15.099Z,0.00
2018-07-06T00:36:15.111Z,0.00
2018-07-06T00:37:15.141Z,0.00
2018-07-06T00:38:15.184Z,0.00
2018-07-06T00:39:15.187Z,0.00
2018-07-06T00:40:15.201Z,0.00
2018-07-06T00:41:15.231Z,0.00
2018-07-06T00:42:15.260Z,0.00
2018-07-06T00:43:15.285Z,0.00
2018-07-06T00:44:15.298Z,0.00
2018-07-06T00:45:15.319Z,0.00
2018-07-06T00:46:15.346Z,0.00
2018-07-06T00:47:15.373Z,0.00
2018-07-06T00:48:15.395Z,0.00
2018-07-06T00:49:15.410Z,0.00
2018-07-06T00:50:15.437Z,0.00
2018-07-06T00:51:15.464Z,0.00
2018-07-06T00:52:15.477Z,0.00
2018-07-06T00:53:15.506Z,0.00
2018-07-06T00:54:15.533Z,0.00
2018-07-06T00:55:15.544Z,0.00
2018-07-06T00:56:15.568Z,0.00
2018-07-06T00:57:15.598Z,0.00
2018-07-06T00:58:15.625Z,0.00
2018-07-06T00:59:15.636Z,0.00
2018-07-06T01:00:15.663Z,0.00
2018-07-06T01:01:15.686Z,0.00
2018-07-06T01:02:15.709Z,0.00
2018-07-06T01:03:15.728Z,0.00
2018-07-06T01:04:15.755Z,0.00
2018-07-06T01:05:15.781Z,0.00
2018-07-06T01:06:15.803Z,0.00
2018-07-06T01:07:15.813Z,0.00
2018-07-06T01:08:15.840Z,0.00
2018-07-06T01:09:15.869Z,0.00
2018-07-06T01:10:16.008Z,0.00
2018-07-06T01:11:15.907Z,0.00
2018-07-06T01:12:15.933Z,0.00
2018-07-06T01:13:15.962Z,0.00
2018-07-06T01:14:15.989Z,0.00
2018-07-06T01:15:16.003Z,0.00
2018-07-06T01:16:16.031Z,0.00
2018-07-06T01:17:16.050Z,0.00
2018-07-06T01:18:16.065Z,0.00
2018-07-06T01:19:16.094Z,0.00
2018-07-06T01:20:16.120Z,0.00
2018-07-06T01:21:16.140Z,0.00
2018-07-06T01:22:16.153Z,0.00
2018-07-06T01:23:16.181Z,0.00
2018-07-06T01:24:16.207Z,0.00
2018-07-06T01:25:16.226Z,0.00
2018-07-06T01:26:16.252Z,0.00
2018-07-06T01:27:16.273Z,0.00
2018-07-06T01:28:16.299Z,0.00
2018-07-06T01:29:16.318Z,0.00
2018-07-06T01:30:16.343Z,0.00
2018-07-06T01:31:16.366Z,0.00
2018-07-06T01:32:16.392Z,0.00
2018-07-06T01:33:16.402Z,0.00
2018-07-06T01:34:16.427Z,0.00
2018-07-06T01:35:16.464Z,0.00
2018-07-06T01:36:16.474Z,0.00
2018-07-06T01:37:16.494Z,0.00
2018-07-06T01:38:16.520Z,0.00
2018-07-06T01:39:16.544Z,0.00
2018-07-06T01:40:16.559Z,0.00
2018-07-06T01:41:16.589Z,0.00
2018-07-06T01:42:16.617Z,0.00
2018-07-06T01:43:16.632Z,0.00
2018-07-06T01:44:16.654Z,0.00
2018-07-06T01:45:16.676Z,0.00
2018-07-06T01:46:16.701Z,0.00
2018-07-06T01:47:16.717Z,0.00
2018-07-06T01:48:16.743Z,0.00
2018-07-06T01:49:16.773Z,0.00
2018-07-06T01:50:16.800Z,0.00
2018-07-06T01:51:16.806Z,0.00
2018-07-06T01:52:16.832Z,0.00
2018-07-06T01:53:16.863Z,0.00
2018-07-06T01:54:16.876Z,0.00
2018-07-06T01:55:16.905Z,0.00
2018-07-06T01:56:16.931Z,0.00
2018-07-06T01:57:16.953Z,0.00
2018-07-06T01:58:16.965Z,0.00
2018-07-06T01:59:16.994Z,0.00
2018-07-06T02:00:17.033Z,0.00
2018-07-06T02:01:17.034Z,0.00
2018-07-06T02:02:17.056Z,0.00
2018-07-06T02:03:17.083Z,0.00
2018-07-06T02:04:17.106Z,4.00
2018-07-06T02:05:17.125Z,4.00
2018-07-06T02:06:17.149Z,4.00
2018-07-06T02:07:17.162Z,4.00
2018-07-06T02:08:17.187Z,4.00
2018-07-06T02:09:17.217Z,0.00
2018-07-06T02:10:17.243Z,4.00
2018-07-06T02:11:17.255Z,4.00
2018-07-06T02:12:17.280Z,4.00
2018-07-06T02:13:17.302Z,8.00
2018-07-06T02:14:17.319Z,4.00
2018-07-06T02:15:17.345Z,4.00
2018-07-06T02:16:17.372Z,8.00
2018-07-06T02:17:17.394Z,8.00
2018-07-06T02:18:17.406Z,12.00
2018-07-06T02:19:17.448Z,12.00
2018-07-06T02:20:17.448Z,12.00
2018-07-06T02:21:17.479Z,12.00
2018-07-06T02:22:17.505Z,16.00
2018-07-06T02:23:17.512Z,20.00
2018-07-06T02:24:17.538Z,20.00
2018-07-06T02:25:17.568Z,20.00
2018-07-06T02:26:17.593Z,28.00
2018-07-06T02:27:17.610Z,28.00
2018-07-06T02:28:17.636Z,32.00
2018-07-06T02:29:17.644Z,36.00
2018-07-06T02:30:17.670Z,40.00
2018-07-06T02:31:17.700Z,48.00
2018-07-06T02:32:17.717Z,52.00
2018-07-06T02:33:17.736Z,56.00
2018-07-06T02:34:17.762Z,64.00
2018-07-06T02:35:17.773Z,68.00
2018-07-06T02:36:17.799Z,76.00
2018-07-06T02:37:17.830Z,84.00
2018-07-06T02:38:17.843Z,92.00
2018-07-06T02:39:17.867Z,100.00
2018-07-06T02:40:17.893Z,108.00
2018-07-06T02:41:17.911Z,120.00
2018-07-06T02:42:17.936Z,128.00
2018-07-06T02:43:17.961Z,144.00
2018-07-06T02:44:17.974Z,156.00
2018-07-06T02:45:17.999Z,172.00
2018-07-06T02:46:18.022Z,180.00
2018-07-06T02:47:18.041Z,192.00
2018-07-06T02:48:18.067Z,200.00
2018-07-06T02:49:18.091Z,208.00
2018-07-06T02:50:18.102Z,220.00
2018-07-06T02:51:18.125Z,228.00
2018-07-06T02:52:18.152Z,236.00
2018-07-06T02:53:18.169Z,244.00
2018-07-06T02:54:18.197Z,252.00
2018-07-06T02:55:18.264Z,260.00
2018-07-06T02:56:18.233Z,276.00
2018-07-06T02:57:18.263Z,292.00
2018-07-06T02:58:18.280Z,308.00
2018-07-06T02:59:18.300Z,332.00
2018-07-06T03:00:18.353Z,356.00
2018-07-06T03:01:18.336Z,380.00
2018-07-06T03:02:18.363Z,404.00
2018-07-06T03:03:18.392Z,436.00
2018-07-06T03:04:18.409Z,480.00
2018-07-06T03:05:18.426Z,520.00
2018-07-06T03:06:18.452Z,560.00
2018-07-06T03:07:18.469Z,596.00
2018-07-06T03:08:18.493Z,628.00
2018-07-06T03:09:18.524Z,668.00
2018-07-06T03:10:18.537Z,708.00
2018-07-06T03:11:18.557Z,740.00
2018-07-06T03:12:18.583Z,780.00
2018-07-06T03:13:18.601Z,820.00
2018-07-06T03:14:18.631Z,864.00
2018-07-06T03:15:18.654Z,904.00
2018-07-06T03:16:18.668Z,948.00
2018-07-06T03:17:18.689Z,996.00
2018-07-06T03:18:18.717Z,1028.00
2018-07-06T03:19:18.735Z,1052.00
2018-07-06T03:20:18.760Z,1092.00
2018-07-06T03:21:18.782Z,1136.00
2018-07-06T03:22:18.808Z,1188.00
2018-07-06T03:23:18.818Z,1244.00
2018-07-06T03:24:18.844Z,1292.00
2018-07-06T03:25:18.862Z,1356.00
2018-07-06T03:26:18.889Z,1432.00
2018-07-06T03:27:18.912Z,1504.00
2018-07-06T03:28:19.011Z,1556.00
2018-07-06T03:29:18.955Z,1616.00
2018-07-06T03:30:18.983Z,1700.00
2018-07-06T03:31:19.005Z,1764.00
2018-07-06T03:32:19.019Z,1784.00
2018-07-06T03:33:19.041Z,1784.00
2018-07-06T03:34:19.074Z,1756.00
2018-07-06T03:35:19.084Z,1804.00
2018-07-06T03:36:19.111Z,1948.00
2018-07-06T03:37:19.132Z,2064.00
2018-07-06T03:38:19.146Z,2096.00
2018-07-06T03:39:19.173Z,2056.00
2018-07-06T03:40:19.199Z,2092.00
2018-07-06T03:41:19.218Z,2164.00
2018-07-06T03:42:19.242Z,2124.00
2018-07-06T03:43:19.265Z,2128.00
2018-07-06T03:44:19.290Z,2200.00
2018-07-06T03:45:19.307Z,2296.00
2018-07-06T03:46:19.334Z,2380.00
2018-07-06T03:47:19.361Z,2528.00
2018-07-06T03:48:19.374Z,2712.00
2018-07-06T03:49:19.396Z,2820.00
2018-07-06T03:50:19.438Z,2852.00
2018-07-06T03:51:19.460Z,2856.00
2018-07-06T03:52:19.462Z,2864.00
2018-07-06T03:53:19.494Z,2832.00
2018-07-06T03:54:19.517Z,2860.00
2018-07-06T03:55:19.528Z,2964.00
2018-07-06T03:56:19.554Z,3112.00
2018-07-06T03:57:19.580Z,3372.00
2018-07-06T03:58:19.615Z,3576.00
2018-07-06T03:59:19.622Z,3552.00
2018-07-06T04:00:19.655Z,3184.00
2018-07-06T04:01:19.671Z,2984.00
2018-07-06T04:02:19.682Z,2900.00
2018-07-06T04:03:19.710Z,2756.00
2018-07-06T04:04:19.732Z,2740.00
2018-07-06T04:05:19.762Z,2688.00
2018-07-06T04:06:19.777Z,2428.00
2018-07-06T04:07:19.810Z,2208.00
2018-07-06T04:08:19.825Z,2076.00
2018-07-06T04:09:19.912Z,2052.00
2018-07-06T04:10:19.867Z,2092.00
2018-07-06T04:11:19.895Z,2172.00
2018-07-06T04:12:19.921Z,2232.00
2018-07-06T04:13:19.933Z,2152.00
2018-07-06T04:14:19.957Z,2100.00
2018-07-06T04:15:19.985Z,2200.00
2018-07-06T04:16:20.012Z,2340.00
2018-07-06T04:17:20.020Z,2300.00
2018-07-06T04:18:20.046Z,2232.00
2018-07-06T04:19:20.075Z,2236.00
2018-07-06T04:20:20.100Z,2256.00
2018-07-06T04:21:20.118Z,2452.00
2018-07-06T04:22:20.144Z,2556.00
2018-07-06T04:23:20.165Z,2544.00
2018-07-06T04:24:20.180Z,2572.00
2018-07-06T04:25:20.209Z,2544.00
2018-07-06T04:26:20.235Z,2604.00
2018-07-06T04:27:20.258Z,2656.00
2018-07-06T04:28:20.274Z,2616.00
2018-07-06T04:29:20.295Z,2664.00
2018-07-06T04:30:20.322Z,2660.00
2018-07-06T04:31:20.352Z,2644.00
2018-07-06T04:32:20.366Z,2624.00
2018-07-06T04:33:20.387Z,2432.00
2018-07-06T04:34:20.425Z,2640.00
2018-07-06T04:35:20.437Z,2592.00
2018-07-06T04:36:20.450Z,2564.00
2018-07-06T04:37:20.482Z,2604.00
2018-07-06T04:38:20.507Z,2668.00
2018-07-06T04:39:20.529Z,2564.00
2018-07-06T04:40:20.541Z,2432.00
2018-07-06T04:41:20.588Z,2356.00
2018-07-06T04:42:20.597Z,2400.00
2018-07-06T04:43:20.626Z,2468.00
2018-07-06T04:44:20.753Z,2544.00
2018-07-06T04:45:20.662Z,2656.00
2018-07-06T04:46:20.688Z,2664.00
2018-07-06T04:47:20.719Z,2688.00
2018-07-06T04:48:20.728Z,2660.00
2018-07-06T04:49:20.750Z,2708.00
2018-07-06T04:50:20.789Z,2836.00
2018-07-06T04:51:20.793Z,2876.00
2018-07-06T04:52:20.819Z,3132.00
2018-07-06T04:53:20.848Z,3272.00
2018-07-06T04:54:20.875Z,3468.00
2018-07-06T04:55:20.882Z,3816.00
2018-07-06T04:56:20.908Z,4168.00
2018-07-06T04:57:20.938Z,4456.00
2018-07-06T04:58:20.963Z,4776.00
2018-07-06T04:59:20.980Z,5156.00
2018-07-06T05:00:21.006Z,5252.00
2018-07-06T05:01:21.280Z,5412.00
2018-07-06T05:02:21.056Z,5324.00
2018-07-06T05:03:21.070Z,5164.00
2018-07-06T05:04:21.096Z,5332.00
2018-07-06T05:05:21.116Z,5540.00
2018-07-06T05:06:21.143Z,5616.00
2018-07-06T05:07:21.158Z,5776.00
2018-07-06T05:08:21.189Z,5880.00
2018-07-06T05:09:21.214Z,5856.00
2018-07-06T05:10:21.241Z,5616.00
2018-07-06T05:11:21.250Z,5492.00
2018-07-06T05:12:21.275Z,5432.00
2018-07-06T05:13:21.305Z,5440.00
2018-07-06T05:14:21.331Z,5312.00
2018-07-06T05:15:21.354Z,5084.00
2018-07-06T05:16:21.369Z,4924.00
2018-07-06T05:17:21.391Z,5144.00
2018-07-06T05:18:21.416Z,5436.00
2018-07-06T05:19:21.448Z,5480.00
2018-07-06T05:20:21.463Z,5756.00
2018-07-06T05:21:21.483Z,5964.00
2018-07-06T05:22:21.509Z,6024.00
2018-07-06T05:23:21.534Z,5656.00
2018-07-06T05:24:21.547Z,5472.00
2018-07-06T05:25:21.578Z,5880.00
2018-07-06T05:26:21.603Z,5712.00
2018-07-06T05:27:21.625Z,5856.00
2018-07-06T05:28:21.651Z,5832.00
2018-07-06T05:29:21.668Z,5724.00
2018-07-06T05:30:21.695Z,5644.00
2018-07-06T05:31:21.725Z,5564.00
2018-07-06T05:32:21.748Z,5520.00
2018-07-06T05:33:21.760Z,5244.00
2018-07-06T05:34:21.785Z,4884.00
2018-07-06T05:35:21.812Z,4972.00
2018-07-06T05:36:21.838Z,5152.00
2018-07-06T05:37:21.847Z,4964.00
2018-07-06T05:38:21.874Z,4860.00
2018-07-06T05:39:21.900Z,4856.00
2018-07-06T05:40:21.927Z,5060.00
2018-07-06T05:41:21.957Z,5692.00
2018-07-06T05:42:21.971Z,5980.00
2018-07-06T05:43:21.993Z,6052.00
2018-07-06T05:44:22.019Z,5992.00
2018-07-06T05:45:22.048Z,5796.00
2018-07-06T05:46:22.096Z,5484.00
2018-07-06T05:47:22.085Z,5416.00
2018-07-06T05:48:22.111Z,6416.00
2018-07-06T05:49:22.136Z,6532.00
2018-07-06T05:50:22.160Z,6292.00
2018-07-06T05:51:22.180Z,6800.00
2018-07-06T05:52:22.206Z,7324.00
2018-07-06T05:53:22.228Z,7564.00
2018-07-06T05:54:22.254Z,7716.00
2018-07-06T05:55:22.277Z,7468.00
2018-07-06T05:56:22.290Z,7148.00
2018-07-06T05:57:22.320Z,7044.00
2018-07-06T05:58:22.346Z,7476.00
2018-07-06T05:59:22.412Z,7808.00
2018-07-06T06:00:22.396Z,7232.00
2018-07-06T06:01:22.414Z,6964.00
2018-07-06T06:02:22.440Z,7556.00
2018-07-06T06:03:22.464Z,7752.00
2018-07-06T06:04:22.491Z,7560.00
2018-07-06T06:05:22.499Z,7236.00
2018-07-06T06:06:22.528Z,6996.00
2018-07-06T06:07:22.559Z,7152.00
2018-07-06T06:08:22.583Z,7384.00
2018-07-06T06:09:22.605Z,7856.00
2018-07-06T06:10:22.619Z,8120.00
2018-07-06T06:11:22.643Z,8216.00
2018-07-06T06:12:22.668Z,8280.00
2018-07-06T06:13:22.699Z,7900.00
2018-07-06T06:14:22.725Z,7424.00
2018-07-06T06:15:22.735Z,7252.00
2018-07-06T06:16:22.759Z,7224.00
2018-07-06T06:17:22.789Z,6980.00
2018-07-06T06:18:22.822Z,6976.00
2018-07-06T06:19:22.846Z,6808.00
2018-07-06T06:20:22.869Z,6988.00
2018-07-06T06:21:22.880Z,7312.00
2018-07-06T06:22:22.905Z,8152.00
2018-07-06T06:23:22.934Z,8328.00
2018-07-06T06:24:22.960Z,8464.00
2018-07-06T06:25:22.981Z,8872.00
2018-07-06T06:26:22.994Z,9120.00
2018-07-06T06:27:23.035Z,9452.00
2018-07-06T06:28:23.052Z,9172.00
2018-07-06T06:29:23.078Z,8668.00
2018-07-06T06:30:23.105Z,8652.00
2018-07-06T06:31:23.113Z,9084.00
2018-07-06T06:32:23.140Z,9532.00
2018-07-06T06:33:23.253Z,9868.00
2018-07-06T06:34:23.196Z,9776.00
2018-07-06T06:35:23.222Z,9628.00
2018-07-06T06:36:23.234Z,9292.00
2018-07-06T06:37:23.254Z,9188.00
2018-07-06T06:38:23.281Z,9296.00
2018-07-06T06:39:23.320Z,9168.00
2018-07-06T06:40:23.339Z,9084.00
2018-07-06T06:41:23.360Z,8784.00
2018-07-06T06:42:23.386Z,8788.00
2018-07-06T06:43:23.399Z,8672.00
2018-07-06T06:44:23.425Z,8404.00
2018-07-06T06:45:23.455Z,8468.00
2018-07-06T06:46:23.482Z,8516.00
2018-07-06T06:47:23.502Z,8672.00
2018-07-06T06:48:23.515Z,9092.00
2018-07-06T06:49:23.545Z,9084.00
2018-07-06T06:50:23.571Z,9360.00
2018-07-06T06:51:23.599Z,10080.00
2018-07-06T06:52:23.625Z,9728.00
2018-07-06T06:53:23.635Z,9392.00
2018-07-06T06:54:23.661Z,9712.00
2018-07-06T06:55:23.695Z,10320.00
2018-07-06T06:56:23.714Z,10116.00
2018-07-06T06:57:23.736Z,9852.00
2018-07-06T06:58:23.762Z,10024.00
2018-07-06T06:59:23.781Z,10364.00
2018-07-06T07:00:27.533Z,10456.00
2018-07-06T07:01:23.834Z,10336.00
2018-07-06T07:02:23.873Z,9788.00
2018-07-06T07:03:23.879Z,9788.00
2018-07-06T07:04:23.906Z,10592.00
2018-07-06T07:05:23.925Z,11036.00
2018-07-06T07:06:23.950Z,11848.00
2018-07-06T07:07:23.999Z,12352.00
2018-07-06T07:08:24.004Z,13368.00
2018-07-06T07:09:24.025Z,14064.00
2018-07-06T07:10:24.051Z,14068.00
2018-07-06T07:11:24.067Z,15524.00
2018-07-06T07:12:24.092Z,16484.00
2018-07-06T07:13:24.114Z,17568.00
2018-07-06T07:14:24.140Z,17220.00
2018-07-06T07:15:24.168Z,17176.00
2018-07-06T07:16:24.207Z,17348.00
2018-07-06T07:17:24.237Z,16876.00
2018-07-06T07:18:24.238Z,17016.00
2018-07-06T07:19:24.261Z,15732.00
2018-07-06T07:20:24.285Z,13308.00
2018-07-06T07:21:24.316Z,12148.00
2018-07-06T07:22:24.342Z,13320.00
2018-07-06T07:23:24.366Z,13536.00
2018-07-06T07:24:24.392Z,13844.00
2018-07-06T07:25:24.417Z,14896.00
2018-07-06T07:26:24.429Z,15620.00
2018-07-06T07:27:24.464Z,15076.00
2018-07-06T07:28:24.485Z,13672.00
2018-07-06T07:29:24.508Z,13708.00
2018-07-06T07:30:24.532Z,13340.00
2018-07-06T07:31:24.556Z,12260.00
2018-07-06T07:32:24.590Z,14760.00
2018-07-06T07:33:24.612Z,16372.00
2018-07-06T07:34:24.639Z,15224.00
2018-07-06T07:35:24.660Z,16700.00
2018-07-06T07:36:24.687Z,16928.00
2018-07-06T07:37:24.704Z,15628.00
2018-07-06T07:38:24.741Z,16060.00
2018-07-06T07:39:24.758Z,18048.00
2018-07-06T07:40:24.784Z,18656.00
2018-07-06T07:41:24.809Z,17632.00
2018-07-06T07:42:24.832Z,18880.00
2018-07-06T07:43:24.861Z,15896.00
2018-07-06T07:44:24.889Z,15264.00
2018-07-06T07:45:24.913Z,15812.00
2018-07-06T07:46:24.938Z,16420.00
2018-07-06T07:47:24.963Z,17536.00
2018-07-06T07:48:24.988Z,17952.00
2018-07-06T07:49:25.005Z,19136.00
2018-07-06T07:50:25.033Z,19296.00
2018-07-06T07:51:25.054Z,18240.00
2018-07-06T07:52:25.095Z,18336.00
2018-07-06T07:53:25.108Z,18720.00
2018-07-06T07:54:25.162Z,18816.00
2018-07-06T07:55:25.163Z,22368.00
2018-07-06T07:56:25.184Z,24064.00
2018-07-06T07:57:25.206Z,18752.00
2018-07-06T07:58:25.232Z,16860.00
2018-07-06T07:59:25.268Z,18048.00
2018-07-06T08:00:25.361Z,20704.00
2018-07-06T08:01:25.415Z,23424.00
2018-07-06T08:02:25.339Z,21568.00
2018-07-06T08:03:25.364Z,20032.00
2018-07-06T08:04:25.387Z,19040.00
2018-07-06T08:05:25.432Z,19104.00
2018-07-06T08:06:25.444Z,21280.00
2018-07-06T08:07:25.472Z,29120.00
2018-07-06T08:08:25.496Z,29824.00
2018-07-06T08:09:25.518Z,29312.00
2018-07-06T08:10:25.544Z,25792.00
2018-07-06T08:11:25.571Z,21408.00
2018-07-06T08:12:25.599Z,20768.00
2018-07-06T08:13:25.628Z,24672.00
2018-07-06T08:14:25.663Z,30944.00
2018-07-06T08:15:25.674Z,27040.00
2018-07-06T08:16:25.700Z,25952.00
2018-07-06T08:17:25.729Z,26656.00
2018-07-06T08:18:25.783Z,22784.00
2018-07-06T08:19:25.791Z,20768.00
2018-07-06T08:20:25.811Z,23200.00
2018-07-06T08:21:25.851Z,23840.00
2018-07-06T08:22:25.857Z,25504.00
2018-07-06T08:23:25.888Z,28224.00
2018-07-06T08:24:25.927Z,25504.00
2018-07-06T08:25:25.966Z,26080.00
2018-07-06T08:26:25.974Z,27232.00
2018-07-06T08:27:25.998Z,25248.00
2018-07-06T08:28:26.027Z,26240.00
2018-07-06T08:29:26.054Z,25088.00
2018-07-06T08:30:26.160Z,25344.00
2018-07-06T08:31:26.107Z,26720.00
2018-07-06T08:32:26.132Z,24320.00
2018-07-06T08:33:26.160Z,24288.00
2018-07-06T08:34:26.187Z,21632.00
2018-07-06T08:35:26.210Z,19040.00
2018-07-06T08:36:26.272Z,17856.00
2018-07-06T08:37:26.269Z,16588.00
2018-07-06T08:38:26.309Z,16100.00
2018-07-06T08:39:26.327Z,16900.00
2018-07-06T08:40:26.352Z,17440.00
2018-07-06T08:41:26.387Z,18272.00
2018-07-06T08:42:26.400Z,21664.00
2018-07-06T08:43:26.428Z,25568.00
2018-07-06T08:44:26.453Z,26144.00
2018-07-06T08:45:26.483Z,25760.00
2018-07-06T08:46:26.510Z,26432.00
2018-07-06T08:47:26.529Z,25536.00
2018-07-06T08:48:26.570Z,25088.00
2018-07-06T08:49:26.599Z,26976.00
2018-07-06T08:50:26.713Z,29152.00
2018-07-06T08:51:26.653Z,27424.00
2018-07-06T08:52:26.679Z,23936.00
2018-07-06T08:53:26.700Z,19808.00
2018-07-06T08:54:26.727Z,18944.00
2018-07-06T08:55:26.756Z,19424.00
2018-07-06T08:56:26.781Z,18496.00
2018-07-06T08:57:26.805Z,19584.00
2018-07-06T08:58:26.884Z,19808.00
2018-07-06T08:59:26.855Z,19840.00
2018-07-06T09:00:26.892Z,21024.00
2018-07-06T09:01:26.913Z,20896.00
2018-07-06T09:02:26.947Z,23744.00
2018-07-06T09:03:26.971Z,31136.00
2018-07-06T09:04:27.203Z,33984.00
2018-07-06T09:05:27.027Z,33248.00
2018-07-06T09:06:27.053Z,31616.00
2018-07-06T09:07:27.120Z,33504.00
2018-07-06T09:08:27.103Z,32928.00
2018-07-06T09:09:27.148Z,31232.00
2018-07-06T09:10:27.164Z,27712.00
2018-07-06T09:11:27.189Z,25248.00
2018-07-06T09:12:27.222Z,24608.00
2018-07-06T09:13:27.244Z,23840.00
2018-07-06T09:14:27.271Z,23872.00
2018-07-06T09:15:27.294Z,23264.00
2018-07-06T09:16:27.319Z,23872.00
2018-07-06T09:17:27.350Z,23424.00
2018-07-06T09:18:27.376Z,25504.00
2018-07-06T09:19:27.442Z,33984.00
2018-07-06T09:20:27.438Z,38048.00
2018-07-06T09:21:27.467Z,36256.00
2018-07-06T09:22:27.494Z,27424.00
2018-07-06T09:23:27.518Z,24864.00
2018-07-06T09:24:27.561Z,23232.00
2018-07-06T09:25:27.685Z,20192.00
2018-07-06T09:26:27.609Z,19616.00
2018-07-06T09:27:27.636Z,20832.00
2018-07-06T09:28:27.660Z,19776.00
2018-07-06T09:29:27.683Z,18656.00
2018-07-06T09:30:27.709Z,22400.00
2018-07-06T09:31:27.737Z,27616.00
2018-07-06T09:32:27.761Z,23712.00
2018-07-06T09:33:27.793Z,20704.00
2018-07-06T09:34:27.830Z,23040.00
2018-07-06T09:35:27.850Z,24736.00
2018-07-06T09:36:27.876Z,22304.00
2018-07-06T09:37:27.905Z,22016.00
2018-07-06T09:38:27.945Z,21760.00
2018-07-06T09:39:27.960Z,19232.00
2018-07-06T09:40:27.999Z,16404.00
2018-07-06T09:41:28.022Z,16888.00
2018-07-06T09:42:28.047Z,18560.00
2018-07-06T09:43:28.116Z,17296.00
2018-07-06T09:44:28.103Z,16052.00
2018-07-06T09:45:28.127Z,15360.00
2018-07-06T09:46:28.151Z,15244.00
2018-07-06T09:47:28.175Z,15764.00
2018-07-06T09:48:28.215Z,16660.00
2018-07-06T09:49:28.242Z,20960.00
2018-07-06T09:50:28.268Z,22528.00
2018-07-06T09:51:28.292Z,20640.00
2018-07-06T09:52:28.318Z,17888.00
2018-07-06T09:53:28.349Z,15748.00
2018-07-06T09:54:28.374Z,17108.00
2018-07-06T09:55:28.400Z,18112.00
2018-07-06T09:56:28.438Z,17664.00
2018-07-06T09:57:28.459Z,17984.00
2018-07-06T09:58:28.486Z,20384.00
2018-07-06T09:59:28.515Z,22624.00
2018-07-06T10:00:28.541Z,21664.00
2018-07-06T10:01:28.563Z,18720.00
2018-07-06T10:02:28.589Z,16680.00
2018-07-06T10:03:28.618Z,16312.00
2018-07-06T10:04:28.655Z,15112.00
2018-07-06T10:05:28.685Z,13724.00
2018-07-06T10:06:28.710Z,12932.00
2018-07-06T10:07:28.730Z,13028.00
2018-07-06T10:08:28.758Z,12372.00
2018-07-06T10:09:28.788Z,11072.00
2018-07-06T10:10:28.814Z,9992.00
2018-07-06T10:11:28.840Z,9628.00
2018-07-06T10:12:28.870Z,10688.00
2018-07-06T10:13:28.888Z,12008.00
2018-07-06T10:14:28.915Z,14316.00
2018-07-06T10:15:28.954Z,16472.00
2018-07-06T10:16:28.982Z,18496.00
2018-07-06T10:17:29.010Z,18912.00
2018-07-06T10:18:29.035Z,16120.00
2018-07-06T10:19:29.139Z,14152.00
2018-07-06T10:20:29.086Z,13384.00
2018-07-06T10:21:29.107Z,12832.00
2018-07-06T10:22:29.136Z,12164.00
2018-07-06T10:23:29.185Z,12168.00
2018-07-06T10:24:29.192Z,12640.00
2018-07-06T10:25:29.212Z,12916.00
2018-07-06T10:26:29.239Z,13308.00
2018-07-06T10:27:29.340Z,14936.00
2018-07-06T10:28:29.289Z,17156.00
2018-07-06T10:29:29.318Z,19040.00
2018-07-06T10:30:29.345Z,17824.00
2018-07-06T10:31:29.367Z,17140.00
2018-07-06T10:32:29.392Z,15980.00
2018-07-06T10:33:29.431Z,13756.00
2018-07-06T10:34:29.462Z,12596.00
2018-07-06T10:35:29.502Z,11988.00
2018-07-06T10:36:29.515Z,11108.00
2018-07-06T10:37:29.536Z,10924.00
2018-07-06T10:38:29.563Z,11696.00
2018-07-06T10:39:29.661Z,12408.00
2018-07-06T10:40:29.616Z,14012.00
2018-07-06T10:41:29.642Z,14596.00
2018-07-06T10:42:29.664Z,13256.00
2018-07-06T10:43:29.692Z,13756.00
2018-07-06T10:44:29.719Z,16116.00
2018-07-06T10:45:29.747Z,17952.00
2018-07-06T10:46:29.774Z,17256.00
2018-07-06T10:47:29.796Z,15420.00
2018-07-06T10:48:29.822Z,14676.00
2018-07-06T10:49:29.852Z,13908.00
2018-07-06T10:50:29.892Z,12660.00
2018-07-06T10:51:29.902Z,12276.00
2018-07-06T10:52:29.928Z,12132.00
2018-07-06T10:53:29.949Z,11992.00
2018-07-06T10:54:29.976Z,12132.00
2018-07-06T10:55:30.009Z,13388.00
2018-07-06T10:56:30.037Z,14224.00
2018-07-06T10:57:30.057Z,13432.00
2018-07-06T10:58:30.082Z,13472.00
2018-07-06T10:59:30.107Z,14376.00
2018-07-06T11:00:30.136Z,13920.00
2018-07-06T11:01:30.162Z,13320.00
2018-07-06T11:02:30.201Z,12796.00
2018-07-06T11:03:30.223Z,13308.00
2018-07-06T11:04:30.252Z,13048.00
2018-07-06T11:05:30.279Z,12564.00
2018-07-06T11:06:30.304Z,13172.00
2018-07-06T11:07:30.333Z,14676.00
2018-07-06T11:08:30.358Z,15892.00
2018-07-06T11:09:30.380Z,15540.00
2018-07-06T11:10:30.407Z,16456.00
2018-07-06T11:11:30.439Z,19040.00
2018-07-06T11:12:30.460Z,20224.00
2018-07-06T11:13:30.482Z,21632.00
2018-07-06T11:14:30.508Z,22784.00
2018-07-06T11:15:30.536Z,22176.00
2018-07-06T11:16:30.567Z,21824.00
2018-07-06T11:17:30.598Z,23008.00
2018-07-06T11:18:30.618Z,23296.00
2018-07-06T11:19:30.652Z,22944.00
2018-07-06T11:20:30.665Z,22912.00
2018-07-06T11:21:30.694Z,21024.00
2018-07-06T11:22:30.720Z,18592.00
2018-07-06T11:23:30.748Z,16164.00
2018-07-06T11:24:30.774Z,17792.00
2018-07-06T11:25:30.838Z,15684.00
2018-07-06T11:26:30.822Z,12572.00
2018-07-06T11:27:30.852Z,11604.00
2018-07-06T11:28:30.875Z,11484.00
2018-07-06T11:29:30.908Z,11108.00
2018-07-06T11:30:30.935Z,11472.00
2018-07-06T11:31:30.963Z,11836.00
2018-07-06T11:32:30.989Z,11048.00
2018-07-06T11:33:31.024Z,10556.00
2018-07-06T11:34:31.047Z,11028.00
2018-07-06T11:35:31.070Z,11900.00
2018-07-06T11:36:31.093Z,12108.00
2018-07-06T11:37:31.123Z,12200.00
2018-07-06T11:38:31.149Z,13724.00
2018-07-06T11:39:31.185Z,15480.00
2018-07-06T11:40:31.199Z,15160.00
2018-07-06T11:41:31.220Z,15072.00
2018-07-06T11:42:31.246Z,15716.00
2018-07-06T11:43:31.279Z,16236.00
2018-07-06T11:44:31.304Z,16392.00
2018-07-06T11:45:31.326Z,16972.00
2018-07-06T11:46:31.355Z,16904.00
2018-07-06T11:47:31.382Z,16576.00
2018-07-06T11:48:31.401Z,15784.00
2018-07-06T11:49:31.432Z,14000.00
2018-07-06T11:50:31.459Z,12496.00
2018-07-06T11:51:31.484Z,11816.00
2018-07-06T11:52:31.506Z,11924.00
2018-07-06T11:53:31.536Z,13304.00
2018-07-06T11:54:31.574Z,15068.00
2018-07-06T11:55:31.591Z,17268.00
2018-07-06T11:56:31.617Z,19264.00
2018-07-06T11:57:31.638Z,17920.00
2018-07-06T11:58:31.667Z,17172.00
2018-07-06T11:59:31.699Z,19360.00
2018-07-06T12:00:31.734Z,21632.00
2018-07-06T12:01:31.742Z,22048.00
2018-07-06T12:02:31.779Z,20768.00
2018-07-06T12:03:31.808Z,18720.00
2018-07-06T12:04:31.850Z,17952.00
2018-07-06T12:05:31.863Z,17760.00
2018-07-06T12:06:31.889Z,17696.00
2018-07-06T12:07:31.911Z,17068.00
2018-07-06T12:08:31.939Z,15912.00
2018-07-06T12:09:31.967Z,17216.00
2018-07-06T12:10:31.993Z,17568.00
2018-07-06T12:11:32.057Z,15688.00